Time;durP1;ratioP1;P1;durP2;ratioP2;P2;SDS_P1;SDS_P2;PMS_P1;PMS_P2;Temp;Humidity;BMP_temperature;BMP_pressure;BME280_temperature;BME280_humidity;BME280_pressure;Samples;Min_cycle;Max_cycle;Signal;HPM_P1;HPM_P2
2023/07/29 00:00:48;;;;;;;3.43;2.40;;;;;;;;;;5123002;28;20536;-80
2023/07/29 00:03:15;;;;;;;2.50;2.03;;;;;;;;;;5122116;28;20429;-80
2023/07/29 00:05:43;;;;;;;7.73;2.43;;;;;;;;;;5123267;28;20449;-80
2023/07/29 00:08:10;;;;;;;2.27;2.07;;;;;;;;;;5122875;28;20784;-81
2023/07/29 00:10:37;;;;;;;4.10;2.60;;;;;;;;;;5122644;28;20491;-80
2023/07/29 00:13:05;;;;;;;2.90;2.07;;;;;;;;;;5120796;28;20514;-79
2023/07/29 00:15:32;;;;;;;3.20;2.10;;;;;;;;;;5120151;28;20461;-80
2023/07/29 00:18:00;;;;;;;5.70;2.97;;;;;;;;;;5119987;28;20441;-79
2023/07/29 00:20:28;;;;;;;3.23;2.93;;;;;;;;;;5121697;28;20480;-80
2023/07/29 00:22:55;;;;;;;3.50;2.50;;;;;;;;;;5121307;28;20462;-80
2023/07/29 00:25:22;;;;;;;4.00;2.70;;;;;;;;;;5122839;28;20456;-79
2023/07/29 00:27:49;;;;;;;3.83;2.97;;;;;;;;;;5122364;28;21018;-80
2023/07/29 00:30:16;;;;;;;3.70;2.50;;;;;;;;;;5122331;28;20454;-80
2023/07/29 00:32:43;;;;;;;3.97;2.80;;;;;;;;;;5121810;28;20992;-80
2023/07/29 00:35:12;;;;;;;5.20;2.60;;;;;;;;;;5121352;28;20552;-80
2023/07/29 00:37:39;;;;;;;14.57;3.17;;;;;;;;;;5121273;28;20469;-80
2023/07/29 00:40:12;;;;;;;6.80;3.13;;;;;;;;;;5122064;28;20499;-80
2023/07/29 00:42:39;;;;;;;3.70;2.30;;;;;;;;;;5121551;28;20521;-80
2023/07/29 00:45:07;;;;;;;4.13;2.40;;;;;;;;;;5121649;28;20460;-79
2023/07/29 00:47:34;;;;;;;4.03;2.70;;;;;;;;;;5122845;28;20462;-79
2023/07/29 00:50:02;;;;;;;3.03;2.43;;;;;;;;;;5122083;28;20494;-80
2023/07/29 00:52:30;;;;;;;4.20;2.50;;;;;;;;;;5122800;28;20498;-79
2023/07/29 00:54:57;;;;;;;5.00;2.50;;;;;;;;;;5121924;28;20461;-79
2023/07/29 00:57:25;;;;;;;4.73;3.17;;;;;;;;;;5121831;28;20452;-80
2023/07/29 00:59:52;;;;;;;3.00;2.30;;;;;;;;;;5120724;28;20465;-79
2023/07/29 01:02:19;;;;;;;3.93;2.87;;;;;;;;;;5121281;28;20798;-80
2023/07/29 01:04:46;;;;;;;4.47;2.30;;;;;;;;;;5121154;28;20449;-80
2023/07/29 01:07:16;;;;;;;3.03;2.73;;;;;;;;;;5121229;28;20450;-80
2023/07/29 01:09:48;;;;;;;5.10;3.03;;;;;;;;;;5120524;28;20813;-80
2023/07/29 01:12:20;;;;;;;4.70;2.77;;;;;;;;;;5120312;28;20577;-79
2023/07/29 01:14:48;;;;;;;4.77;2.93;;;;;;;;;;5121487;28;20441;-79
2023/07/29 01:17:22;;;;;;;3.40;2.83;;;;;;;;;;5121779;28;20458;-79
2023/07/29 01:19:56;;;;;;;6.83;2.33;;;;;;;;;;5120700;28;20432;-79
2023/07/29 01:22:23;;;;;;;3.97;3.33;;;;;;;;;;5119217;28;20465;-80
2023/07/29 01:24:51;;;;;;;3.80;2.47;;;;;;;;;;5119910;28;20456;-80
2023/07/29 01:27:18;;;;;;;4.67;2.83;;;;;;;;;;5121112;28;20456;-79
2023/07/29 01:29:46;;;;;;;2.90;2.30;;;;;;;;;;5121597;28;20449;-80
2023/07/29 01:32:15;;;;;;;3.13;2.30;;;;;;;;;;5120898;28;20494;-79
2023/07/29 01:34:46;;;;;;;2.83;2.27;;;;;;;;;;5120444;28;20458;-79
2023/07/29 01:37:16;;;;;;;3.30;2.83;;;;;;;;;;5119768;28;20460;-79
2023/07/29 01:39:45;;;;;;;5.20;3.10;;;;;;;;;;5122498;28;20442;-79
2023/07/29 01:42:14;;;;;;;3.27;2.47;;;;;;;;;;5121502;28;20832;-79
2023/07/29 01:44:42;;;;;;;4.10;2.73;;;;;;;;;;5120940;28;20460;-79
2023/07/29 01:47:09;;;;;;;5.33;3.00;;;;;;;;;;5120217;28;20540;-80
2023/07/29 01:49:36;;;;;;;6.40;2.67;;;;;;;;;;5121082;28;20444;-80
2023/07/29 01:52:04;;;;;;;5.77;2.70;;;;;;;;;;5119637;28;20835;-80
2023/07/29 01:54:31;;;;;;;3.60;3.17;;;;;;;;;;5119465;28;20961;-80
2023/07/29 01:56:58;;;;;;;5.53;2.93;;;;;;;;;;5119685;28;20456;-78
2023/07/29 01:59:26;;;;;;;4.07;3.00;;;;;;;;;;5118243;28;20931;-77
2023/07/29 02:01:54;;;;;;;6.40;2.63;;;;;;;;;;5118156;28;20984;-78
2023/07/29 02:04:21;;;;;;;2.80;2.53;;;;;;;;;;5119143;28;20450;-80
2023/07/29 02:06:48;;;;;;;5.80;2.77;;;;;;;;;;5119199;28;20458;-80
2023/07/29 02:09:15;;;;;;;5.10;2.97;;;;;;;;;;5119491;28;20450;-79
2023/07/29 02:11:42;;;;;;;4.27;3.33;;;;;;;;;;5118486;28;20492;-80
2023/07/29 02:14:09;;;;;;;5.37;3.20;;;;;;;;;;5120493;28;20446;-80
2023/07/29 02:16:38;;;;;;;3.80;2.83;;;;;;;;;;5119054;28;20785;-80
2023/07/29 02:19:06;;;;;;;5.53;2.80;;;;;;;;;;5119768;28;20548;-80
2023/07/29 02:21:33;;;;;;;4.03;3.60;;;;;;;;;;5118861;28;20474;-79
2023/07/29 02:24:00;;;;;;;4.20;2.70;;;;;;;;;;5119394;28;20473;-79
2023/07/29 02:26:27;;;;;;;3.93;2.90;;;;;;;;;;5119032;28;20454;-78
2023/07/29 02:28:54;;;;;;;5.00;3.97;;;;;;;;;;5119176;28;20810;-79
2023/07/29 02:31:24;;;;;;;3.20;2.90;;;;;;;;;;5119868;28;20496;-79
2023/07/29 02:33:52;;;;;;;6.60;2.93;;;;;;;;;;5119205;28;20434;-79
2023/07/29 02:36:19;;;;;;;8.43;3.37;;;;;;;;;;5119953;28;20453;-79
2023/07/29 02:38:46;;;;;;;4.50;3.00;;;;;;;;;;5120687;28;20957;-79
2023/07/29 02:41:15;;;;;;;3.53;3.20;;;;;;;;;;5119758;28;20472;-79
2023/07/29 02:43:43;;;;;;;4.40;3.13;;;;;;;;;;5119483;28;20445;-79
2023/07/29 02:46:10;;;;;;;4.00;3.37;;;;;;;;;;5119722;28;20462;-79
2023/07/29 02:48:37;;;;;;;5.20;3.77;;;;;;;;;;5119589;28;20464;-79
2023/07/29 02:51:06;;;;;;;6.20;3.40;;;;;;;;;;5119257;28;20473;-79
2023/07/29 02:53:33;;;;;;;4.40;4.00;;;;;;;;;;5118658;28;20518;-79
2023/07/29 02:56:00;;;;;;;6.63;3.67;;;;;;;;;;5117939;28;20492;-79
2023/07/29 02:58:27;;;;;;;6.90;3.27;;;;;;;;;;5119177;28;20454;-79
2023/07/29 03:00:54;;;;;;;3.97;2.70;;;;;;;;;;5119482;28;20473;-79
2023/07/29 03:03:21;;;;;;;6.20;3.10;;;;;;;;;;5118714;28;20944;-79
2023/07/29 03:05:48;;;;;;;4.73;4.00;;;;;;;;;;5119122;28;20461;-79
2023/07/29 03:08:17;;;;;;;3.77;3.40;;;;;;;;;;5119640;28;20460;-79
2023/07/29 03:10:44;;;;;;;4.20;3.70;;;;;;;;;;5118532;28;20446;-79
2023/07/29 03:13:11;;;;;;;4.90;3.70;;;;;;;;;;5117628;28;20853;-79
2023/07/29 03:15:38;;;;;;;5.20;3.70;;;;;;;;;;5118729;28;20460;-79
2023/07/29 03:18:05;;;;;;;4.57;3.90;;;;;;;;;;5119341;28;20525;-79
2023/07/29 03:20:32;;;;;;;9.87;5.30;;;;;;;;;;5119642;28;20460;-78
2023/07/29 03:22:59;;;;;;;3.63;3.00;;;;;;;;;;5118686;28;20450;-79
2023/07/29 03:25:28;;;;;;;4.20;3.53;;;;;;;;;;5118506;28;20460;-79
2023/07/29 03:27:55;;;;;;;6.70;4.13;;;;;;;;;;5118617;28;20965;-80
2023/07/29 03:30:23;;;;;;;6.03;3.40;;;;;;;;;;5118258;28;20883;-79
2023/07/29 03:32:50;;;;;;;3.40;3.10;;;;;;;;;;5119008;28;20478;-79
2023/07/29 03:35:18;;;;;;;6.23;3.80;;;;;;;;;;5123042;28;20465;-79
2023/07/29 03:37:45;;;;;;;6.77;3.80;;;;;;;;;;5122758;28;20446;-80
2023/07/29 03:40:12;;;;;;;3.70;3.17;;;;;;;;;;5123201;28;20453;-79
2023/07/29 03:42:41;;;;;;;4.93;3.33;;;;;;;;;;5122676;28;20561;-79
2023/07/29 03:45:08;;;;;;;3.43;3.10;;;;;;;;;;5123636;28;20465;-79
2023/07/29 03:47:36;;;;;;;3.77;2.70;;;;;;;;;;5122725;28;20450;-79
2023/07/29 03:50:04;;;;;;;4.47;3.20;;;;;;;;;;5121570;28;20436;-78
2023/07/29 03:52:31;;;;;;;3.17;2.87;;;;;;;;;;5121553;28;20497;-79
2023/07/29 03:54:58;;;;;;;3.70;3.37;;;;;;;;;;5121018;28;20445;-80
2023/07/29 03:57:25;;;;;;;3.00;2.60;;;;;;;;;;5121011;28;20458;-79
2023/07/29 03:59:54;;;;;;;4.03;3.17;;;;;;;;;;5121854;28;20532;-79
2023/07/29 04:02:21;;;;;;;6.77;3.23;;;;;;;;;;5120281;28;20962;-78
2023/07/29 04:04:48;;;;;;;3.83;3.43;;;;;;;;;;5122355;28;20478;-79
2023/07/29 04:07:15;;;;;;;5.60;3.40;;;;;;;;;;5121585;28;20446;-79
2023/07/29 04:09:43;;;;;;;4.80;2.90;;;;;;;;;;5119800;28;20452;-79
2023/07/29 04:12:10;;;;;;;4.87;3.10;;;;;;;;;;5120742;28;20608;-79
2023/07/29 04:14:37;;;;;;;3.40;3.10;;;;;;;;;;5120944;28;21007;-79
2023/07/29 04:17:06;;;;;;;4.70;3.60;;;;;;;;;;5121037;28;20464;-79
2023/07/29 04:19:33;;;;;;;3.07;2.60;;;;;;;;;;5121070;28;20472;-79
2023/07/29 04:22:01;;;;;;;3.80;2.87;;;;;;;;;;5119719;28;20473;-79
2023/07/29 04:24:28;;;;;;;3.60;2.70;;;;;;;;;;5121511;28;20910;-79
2023/07/29 04:26:55;;;;;;;3.43;2.30;;;;;;;;;;5122394;28;20457;-80
2023/07/29 04:29:22;;;;;;;2.53;2.30;;;;;;;;;;5121500;28;20445;-79
2023/07/29 04:31:49;;;;;;;3.60;2.17;;;;;;;;;;5119467;28;20474;-79
2023/07/29 04:34:18;;;;;;;3.40;2.80;;;;;;;;;;5120918;28;20449;-80
2023/07/29 04:36:45;;;;;;;2.70;2.00;;;;;;;;;;5120295;28;20511;-80
2023/07/29 04:39:13;;;;;;;5.40;2.40;;;;;;;;;;5119720;28;20460;-79
2023/07/29 04:41:40;;;;;;;8.93;2.27;;;;;;;;;;5118963;28;20824;-79
2023/07/29 04:44:07;;;;;;;2.83;2.13;;;;;;;;;;5117672;28;20450;-79
2023/07/29 04:46:34;;;;;;;3.70;1.87;;;;;;;;;;5119172;28;20544;-79
2023/07/29 04:49:02;;;;;;;4.50;2.40;;;;;;;;;;5118176;28;20457;-80
2023/07/29 04:51:31;;;;;;;1.97;1.77;;;;;;;;;;5117076;28;20865;-79
2023/07/29 04:53:58;;;;;;;2.67;2.23;;;;;;;;;;5118265;28;20454;-80
2023/07/29 04:56:25;;;;;;;3.60;2.30;;;;;;;;;;5119182;28;20445;-79
2023/07/29 04:58:53;;;;;;;3.30;2.20;;;;;;;;;;5118712;28;20501;-79
2023/07/29 05:01:20;;;;;;;3.30;2.80;;;;;;;;;;5118340;28;20465;-79
2023/07/29 05:03:48;;;;;;;3.43;2.40;;;;;;;;;;5119056;28;20426;-80
2023/07/29 05:06:15;;;;;;;8.10;2.63;;;;;;;;;;5118871;28;20437;-80
2023/07/29 05:08:43;;;;;;;3.87;1.90;;;;;;;;;;5119129;28;20543;-80
2023/07/29 05:11:10;;;;;;;2.83;2.57;;;;;;;;;;5118534;28;20573;-80
2023/07/29 05:13:38;;;;;;;3.73;1.90;;;;;;;;;;5117114;28;20485;-80
2023/07/29 05:16:06;;;;;;;3.13;2.63;;;;;;;;;;5118298;28;20537;-80
2023/07/29 05:18:33;;;;;;;3.40;2.30;;;;;;;;;;5118915;28;20450;-80
2023/07/29 05:21:00;;;;;;;2.33;1.70;;;;;;;;;;5119403;28;20558;-80
2023/07/29 05:23:27;;;;;;;5.67;2.40;;;;;;;;;;5119299;28;20898;-79
2023/07/29 05:25:55;;;;;;;2.33;2.10;;;;;;;;;;5120076;28;20460;-79
2023/07/29 05:28:22;;;;;;;3.13;1.93;;;;;;;;;;5119380;28;20442;-80
2023/07/29 05:30:50;;;;;;;2.50;2.07;;;;;;;;;;5118987;28;20517;-81
2023/07/29 05:33:17;;;;;;;4.50;2.13;;;;;;;;;;5120627;28;20485;-80
2023/07/29 05:35:44;;;;;;;2.10;1.90;;;;;;;;;;5116699;28;20453;-80
2023/07/29 05:38:11;;;;;;;1.97;1.77;;;;;;;;;;5117109;28;20442;-78
2023/07/29 05:40:38;;;;;;;3.20;1.67;;;;;;;;;;5117742;28;20801;-77
2023/07/29 05:43:07;;;;;;;2.87;1.70;;;;;;;;;;5121137;28;20544;-79
2023/07/29 05:45:34;;;;;;;2.77;2.10;;;;;;;;;;5120759;28;20442;-78
2023/07/29 05:48:01;;;;;;;1.77;1.67;;;;;;;;;;5121762;28;20462;-78
2023/07/29 05:50:28;;;;;;;2.27;2.07;;;;;;;;;;5123801;28;20450;-79
2023/07/29 05:52:55;;;;;;;4.83;2.40;;;;;;;;;;5122368;28;20857;-79
2023/07/29 05:55:22;;;;;;;5.50;2.23;;;;;;;;;;5124598;28;20454;-79
2023/07/29 05:57:49;;;;;;;2.60;1.90;;;;;;;;;;5124306;28;20469;-79
2023/07/29 06:00:18;;;;;;;2.73;2.20;;;;;;;;;;5122101;28;20485;-79
2023/07/29 06:02:45;;;;;;;4.30;2.67;;;;;;;;;;5122931;28;20492;-79
2023/07/29 06:05:12;;;;;;;3.03;2.10;;;;;;;;;;5119039;28;20782;-78
2023/07/29 06:07:43;;;;;;;3.50;2.13;;;;;;;;;;5116147;28;20454;-77
2023/07/29 06:10:11;;;;;;;2.00;1.80;;;;;;;;;;5117484;28;20460;-78
2023/07/29 06:12:38;;;;;;;2.43;2.00;;;;;;;;;;5115924;28;20492;-78
2023/07/29 06:15:06;;;;;;;3.50;2.07;;;;;;;;;;5117750;28;20453;-78
2023/07/29 06:17:35;;;;;;;2.07;1.87;;;;;;;;;;5118074;28;20457;-78
2023/07/29 06:20:02;;;;;;;2.40;2.10;;;;;;;;;;5119042;28;20445;-77
2023/07/29 06:22:30;;;;;;;2.43;2.23;;;;;;;;;;5116100;28;20508;-78
2023/07/29 06:24:57;;;;;;;2.93;2.37;;;;;;;;;;5114909;28;20424;-81
2023/07/29 06:27:25;;;;;;;2.37;2.17;;;;;;;;;;5114463;28;20211;-79
2023/07/29 06:29:52;;;;;;;2.33;2.13;;;;;;;;;;5115919;28;20505;-78
2023/07/29 06:32:19;;;;;;;3.17;2.20;;;;;;;;;;5116548;28;20464;-80
2023/07/29 06:34:47;;;;;;;3.50;1.63;;;;;;;;;;5117199;28;20453;-81
2023/07/29 06:37:15;;;;;;;3.00;1.97;;;;;;;;;;5115472;28;20438;-80
2023/07/29 06:39:42;;;;;;;2.50;2.20;;;;;;;;;;5117502;28;20461;-79
2023/07/29 06:42:09;;;;;;;2.20;2.00;;;;;;;;;;5117890;28;20497;-78
2023/07/29 06:44:36;;;;;;;2.33;2.10;;;;;;;;;;5118019;28;20449;-79
2023/07/29 06:47:03;;;;;;;3.10;2.00;;;;;;;;;;5115881;28;20438;-79
2023/07/29 06:49:30;;;;;;;2.20;1.93;;;;;;;;;;5114622;28;20457;-78
2023/07/29 06:51:59;;;;;;;2.20;1.80;;;;;;;;;;5115693;28;21194;-80
2023/07/29 06:54:26;;;;;;;2.73;2.47;;;;;;;;;;5113935;28;21001;-80
2023/07/29 06:56:54;;;;;;;2.20;2.00;;;;;;;;;;5114064;28;20498;-79
2023/07/29 06:59:21;;;;;;;2.50;1.97;;;;;;;;;;5115885;28;20466;-80
2023/07/29 07:01:48;;;;;;;5.23;2.00;;;;;;;;;;5113968;28;20466;-81
2023/07/29 07:04:15;;;;;;;3.40;2.00;;;;;;;;;;5114688;28;20445;-80
2023/07/29 07:06:42;;;;;;;2.30;1.90;;;;;;;;;;5113931;28;20552;-82
2023/07/29 07:09:11;;;;;;;2.13;1.87;;;;;;;;;;5114514;28;20473;-80
2023/07/29 07:11:38;;;;;;;5.30;2.03;;;;;;;;;;5113788;28;20564;-82
2023/07/29 07:14:05;;;;;;;2.07;1.87;;;;;;;;;;5115116;28;20490;-82
2023/07/29 07:16:32;;;;;;;2.20;2.00;;;;;;;;;;5114800;28;20448;-82
2023/07/29 07:18:59;;;;;;;3.20;2.40;;;;;;;;;;5115081;28;20207;-81
2023/07/29 07:21:26;;;;;;;1.80;1.70;;;;;;;;;;5114190;28;20882;-82
2023/07/29 07:23:53;;;;;;;3.10;2.20;;;;;;;;;;5116658;28;20500;-81
2023/07/29 07:26:22;;;;;;;2.77;2.10;;;;;;;;;;5116304;28;20453;-82
2023/07/29 07:28:49;;;;;;;2.70;2.30;;;;;;;;;;5115535;28;20465;-81
2023/07/29 07:31:17;;;;;;;2.60;2.10;;;;;;;;;;5116096;28;20504;-82
2023/07/29 07:33:44;;;;;;;2.97;1.83;;;;;;;;;;5113875;28;20544;-82
2023/07/29 07:36:11;;;;;;;2.70;2.00;;;;;;;;;;5114431;28;20446;-80
2023/07/29 07:38:38;;;;;;;2.30;1.90;;;;;;;;;;5113874;28;20438;-82
2023/07/29 07:41:05;;;;;;;2.70;2.50;;;;;;;;;;5113597;28;20504;-80
2023/07/29 07:43:34;;;;;;;3.30;2.33;;;;;;;;;;5113655;28;20458;-80
2023/07/29 07:46:01;;;;;;;2.63;1.97;;;;;;;;;;5115336;28;20521;-81
2023/07/29 07:48:29;;;;;;;1.90;1.70;;;;;;;;;;5114857;28;20449;-81
2023/07/29 07:50:56;;;;;;;5.50;2.10;;;;;;;;;;5114444;28;20472;-82
2023/07/29 07:53:25;;;;;;;2.80;1.90;;;;;;;;;;5114865;28;20488;-80
2023/07/29 07:55:52;;;;;;;4.27;2.23;;;;;;;;;;5114039;28;20493;-81
2023/07/29 07:58:19;;;;;;;2.20;1.90;;;;;;;;;;5113587;28;20449;-81
2023/07/29 08:00:48;;;;;;;2.20;1.93;;;;;;;;;;5113626;28;20824;-83
2023/07/29 08:03:15;;;;;;;2.70;2.33;;;;;;;;;;5113041;28;20442;-81
2023/07/29 08:05:42;;;;;;;2.97;2.20;;;;;;;;;;5113237;28;21057;-81
2023/07/29 08:08:09;;;;;;;2.40;2.10;;;;;;;;;;5114951;28;20454;-81
2023/07/29 08:10:38;;;;;;;3.73;3.37;;;;;;;;;;5115658;28;20438;-80
2023/07/29 08:13:05;;;;;;;2.40;2.00;;;;;;;;;;5114993;28;20469;-81
2023/07/29 08:15:33;;;;;;;2.40;2.03;;;;;;;;;;5115069;28;20509;-80
2023/07/29 08:18:01;;;;;;;2.33;2.00;;;;;;;;;;5113677;28;20449;-81
2023/07/29 08:20:28;;;;;;;5.00;4.13;;;;;;;;;;5115465;28;20739;-79
2023/07/29 08:22:55;;;;;;;2.70;2.03;;;;;;;;;;5118122;28;20850;-80
2023/07/29 08:25:22;;;;;;;3.67;2.30;;;;;;;;;;5117741;28;20544;-80
2023/07/29 08:27:49;;;;;;;7.40;2.00;;;;;;;;;;5117628;28;20572;-80
2023/07/29 08:30:18;;;;;;;2.57;1.87;;;;;;;;;;5118433;28;20525;-79
2023/07/29 08:32:45;;;;;;;4.93;2.37;;;;;;;;;;5117414;28;20482;-78
2023/07/29 08:35:13;;;;;;;4.03;3.20;;;;;;;;;;5116811;28;20449;-79
2023/07/29 08:37:40;;;;;;;3.97;2.40;;;;;;;;;;5116480;28;20453;-80
2023/07/29 08:40:08;;;;;;;2.73;2.43;;;;;;;;;;5116198;28;20825;-81
2023/07/29 08:42:36;;;;;;;4.53;2.80;;;;;;;;;;5116587;28;20546;-80
2023/07/29 08:45:07;;;;;;;3.67;2.70;;;;;;;;;;5116709;28;21002;-81
2023/07/29 08:47:34;;;;;;;4.63;2.80;;;;;;;;;;5116731;28;20450;-80
2023/07/29 08:50:03;;;;;;;3.93;3.53;;;;;;;;;;5116337;28;20456;-80
2023/07/29 08:52:34;;;;;;;2.73;2.30;;;;;;;;;;5115624;28;20994;-80
2023/07/29 08:55:02;;;;;;;4.40;2.60;;;;;;;;;;5116079;28;20477;-80
2023/07/29 08:57:29;;;;;;;9.33;2.77;;;;;;;;;;5116250;28;20457;-81
2023/07/29 08:59:57;;;;;;;2.73;2.03;;;;;;;;;;5115958;28;20958;-81
2023/07/29 09:02:24;;;;;;;6.83;4.40;;;;;;;;;;5116066;28;20461;-80
2023/07/29 09:04:51;;;;;;;5.60;4.93;;;;;;;;;;5116071;28;20441;-79
2023/07/29 09:07:18;;;;;;;11.03;6.07;;;;;;;;;;5115476;28;20438;-80
2023/07/29 09:09:47;;;;;;;8.63;5.27;;;;;;;;;;5116369;28;20457;-80
2023/07/29 09:12:14;;;;;;;5.73;4.70;;;;;;;;;;5115455;28;20842;-80
2023/07/29 09:14:41;;;;;;;12.10;6.43;;;;;;;;;;5116273;28;20477;-81
2023/07/29 09:20:12;;;;;;;10.53;5.43;;;;;;;;;;5117608;28;20377;-80
2023/07/29 09:22:39;;;;;;;4.27;3.37;;;;;;;;;;5117309;28;20469;-80
2023/07/29 09:25:08;;;;;;;3.77;3.33;;;;;;;;;;5117223;28;20446;-81
2023/07/29 09:27:39;;;;;;;7.00;3.00;;;;;;;;;;5117205;28;20458;-82
2023/07/29 09:30:07;;;;;;;3.03;2.20;;;;;;;;;;5116674;28;20446;-82
2023/07/29 09:32:34;;;;;;;3.30;2.63;;;;;;;;;;5116184;28;20457;-82
2023/07/29 09:35:01;;;;;;;4.70;3.17;;;;;;;;;;5115193;28;20961;-81
2023/07/29 09:37:28;;;;;;;6.00;3.47;;;;;;;;;;5116985;28;20438;-82
2023/07/29 09:39:55;;;;;;;3.03;2.73;;;;;;;;;;5116888;28;20468;-82
2023/07/29 09:42:24;;;;;;;5.10;3.00;;;;;;;;;;5113087;28;20481;-81
2023/07/29 09:44:53;;;;;;;3.93;3.10;;;;;;;;;;5113447;28;20453;-81
2023/07/29 09:47:21;;;;;;;3.10;2.73;;;;;;;;;;5115398;28;21001;-81
2023/07/29 09:49:48;;;;;;;3.43;3.00;;;;;;;;;;5114673;28;20446;-81
2023/07/29 09:52:16;;;;;;;3.03;2.33;;;;;;;;;;5114825;28;20531;-81
2023/07/29 09:54:44;;;;;;;2.60;2.40;;;;;;;;;;5113975;28;20832;-81
2023/07/29 09:57:12;;;;;;;3.30;2.33;;;;;;;;;;5114136;28;20454;-81
2023/07/29 09:59:40;;;;;;;2.60;2.40;;;;;;;;;;5114627;28;20477;-81
2023/07/29 10:02:11;;;;;;;3.10;2.40;;;;;;;;;;5114331;28;20470;-82
2023/07/29 10:04:38;;;;;;;12.20;2.70;;;;;;;;;;5114852;28;20823;-81
2023/07/29 10:07:07;;;;;;;6.40;2.70;;;;;;;;;;5114710;28;20446;-81
2023/07/29 10:09:34;;;;;;;2.83;2.53;;;;;;;;;;5114705;28;20484;-81
2023/07/29 10:12:01;;;;;;;2.50;2.30;;;;;;;;;;5114516;28;20474;-81
2023/07/29 10:14:29;;;;;;;3.30;2.67;;;;;;;;;;5114377;28;20564;-82
2023/07/29 10:16:58;;;;;;;3.63;3.10;;;;;;;;;;5115148;28;20450;-81
2023/07/29 10:19:26;;;;;;;3.73;2.53;;;;;;;;;;5114760;28;20449;-81
2023/07/29 10:21:54;;;;;;;3.77;2.70;;;;;;;;;;5115043;28;20492;-80
2023/07/29 10:24:28;;;;;;;4.07;2.43;;;;;;;;;;5114165;28;20446;-81
2023/07/29 10:26:57;;;;;;;3.87;3.20;;;;;;;;;;5113107;28;20441;-80
2023/07/29 10:29:25;;;;;;;3.80;2.77;;;;;;;;;;5112933;28;20544;-81
2023/07/29 10:31:54;;;;;;;2.70;2.20;;;;;;;;;;5112798;28;20812;-82
2023/07/29 10:34:22;;;;;;;6.50;2.30;;;;;;;;;;5113346;28;20534;-82
2023/07/29 10:36:50;;;;;;;2.90;2.33;;;;;;;;;;5113916;28;20495;-81
2023/07/29 10:39:17;;;;;;;3.50;2.80;;;;;;;;;;5113577;28;20819;-81
2023/07/29 10:41:57;;;;;;;2.70;2.40;;;;;;;;;;5113285;28;21141;-82
2023/07/29 10:44:43;;;;;;;3.03;2.60;;;;;;;;;;5112869;28;20450;-81
2023/07/29 10:47:13;;;;;;;3.13;2.83;;;;;;;;;;5113440;28;20770;-81
2023/07/29 10:49:43;;;;;;;2.57;2.30;;;;;;;;;;5113059;28;20422;-82
2023/07/29 10:52:10;;;;;;;3.00;2.57;;;;;;;;;;5113771;28;20575;-82
2023/07/29 10:54:43;;;;;;;2.53;2.33;;;;;;;;;;5112781;28;20509;-81
2023/07/29 11:03:01;;;;;;;2.60;2.30;;;;;;;;;;5114755;28;20393;-80
2023/07/29 11:05:43;;;;;;;3.43;2.90;;;;;;;;;;5113964;28;20463;-80
2023/07/29 11:08:17;;;;;;;8.27;2.97;;;;;;;;;;5114347;28;20445;-82
2023/07/29 11:10:58;;;;;;;4.80;2.50;;;;;;;;;;5114114;28;20448;-80
2023/07/29 11:16:31;;;;;;;3.07;2.63;;;;;;;;;;5114333;28;20421;-81
2023/07/29 11:19:30;;;;;;;5.23;3.23;;;;;;;;;;5114371;28;20449;-81
2023/07/29 11:21:59;;;;;;;2.83;2.63;;;;;;;;;;5114194;28;20810;-80
2023/07/29 11:24:26;;;;;;;2.83;2.23;;;;;;;;;;5114087;28;20457;-78
2023/07/29 11:26:53;;;;;;;3.57;2.70;;;;;;;;;;5113991;28;20455;-81
2023/07/29 11:29:20;;;;;;;2.87;2.67;;;;;;;;;;5113692;28;20457;-80
2023/07/29 11:31:48;;;;;;;3.20;2.90;;;;;;;;;;5114268;28;20474;-80
2023/07/29 11:34:20;;;;;;;2.87;2.67;;;;;;;;;;5113846;28;20485;-81
2023/07/29 11:36:47;;;;;;;8.13;2.83;;;;;;;;;;5113248;28;20480;-80
2023/07/29 11:39:15;;;;;;;3.20;2.57;;;;;;;;;;5113985;28;20454;-82
2023/07/29 11:41:44;;;;;;;3.87;2.87;;;;;;;;;;5113991;28;20473;-80
2023/07/29 11:44:11;;;;;;;4.20;3.37;;;;;;;;;;5113674;28;20457;-80
2023/07/29 11:46:38;;;;;;;3.90;2.73;;;;;;;;;;5114700;28;20438;-83
2023/07/29 11:49:05;;;;;;;3.43;2.53;;;;;;;;;;5115181;28;20434;-80
2023/07/29 11:51:33;;;;;;;3.40;3.10;;;;;;;;;;5114447;28;20568;-81
2023/07/29 11:54:01;;;;;;;2.73;2.53;;;;;;;;;;5116826;28;20449;-84
2023/07/29 11:56:31;;;;;;;3.00;2.10;;;;;;;;;;5120033;28;20461;-81
2023/07/29 11:58:58;;;;;;;2.80;2.57;;;;;;;;;;5117799;28;20960;-80
2023/07/29 12:01:25;;;;;;;2.63;2.43;;;;;;;;;;5117772;28;20466;-80
2023/07/29 12:06:56;;;;;;;3.50;2.60;;;;;;;;;;5118073;28;20408;-81
2023/07/29 12:09:23;;;;;;;2.77;2.47;;;;;;;;;;5118005;28;20473;-79
2023/07/29 12:11:52;;;;;;;3.80;2.80;;;;;;;;;;5120952;28;20476;-82
2023/07/29 12:14:19;;;;;;;5.47;2.20;;;;;;;;;;5119629;28;20488;-79
2023/07/29 12:16:49;;;;;;;7.50;1.90;;;;;;;;;;5119563;28;20449;-80
2023/07/29 12:19:17;;;;;;;8.93;2.40;;;;;;;;;;5116534;28;20449;-79
2023/07/29 12:21:45;;;;;;;6.40;3.17;;;;;;;;;;5116435;28;20978;-78
2023/07/29 12:24:13;;;;;;;5.93;2.10;;;;;;;;;;5117024;28;20769;-79
2023/07/29 12:26:41;;;;;;;3.80;2.07;;;;;;;;;;5116719;28;20448;-78
2023/07/29 12:29:16;;;;;;;2.70;1.90;;;;;;;;;;5116200;28;20456;-78
2023/07/29 12:31:44;;;;;;;3.57;2.47;;;;;;;;;;5115670;28;20479;-78
2023/07/29 12:34:11;;;;;;;3.40;2.10;;;;;;;;;;5115997;28;20907;-78
2023/07/29 12:36:45;;;;;;;2.87;2.00;;;;;;;;;;5115801;28;20460;-78
2023/07/29 12:39:18;;;;;;;3.27;2.10;;;;;;;;;;5115843;28;20450;-78
2023/07/29 12:41:46;;;;;;;3.77;2.30;;;;;;;;;;5116162;28;20944;-78
2023/07/29 12:44:13;;;;;;;3.53;2.20;;;;;;;;;;5118153;28;20449;-78
2023/07/29 12:46:41;;;;;;;3.33;2.90;;;;;;;;;;5117809;28;20456;-78
2023/07/29 12:49:09;;;;;;;2.63;2.27;;;;;;;;;;5117022;28;20814;-78
2023/07/29 12:51:36;;;;;;;3.33;2.40;;;;;;;;;;5115620;28;20466;-77
2023/07/29 12:54:04;;;;;;;6.90;2.60;;;;;;;;;;5115006;28;20445;-78
2023/07/29 12:56:31;;;;;;;2.30;2.00;;;;;;;;;;5115467;28;20449;-77
2023/07/29 12:58:59;;;;;;;3.50;2.53;;;;;;;;;;5114882;28;20884;-78
2023/07/29 13:01:26;;;;;;;2.23;2.03;;;;;;;;;;5114962;28;21034;-77
2023/07/29 13:03:54;;;;;;;3.47;2.63;;;;;;;;;;5114940;28;20446;-77
2023/07/29 13:06:22;;;;;;;6.13;2.40;;;;;;;;;;5114078;28;20450;-75
2023/07/29 13:08:49;;;;;;;2.10;1.90;;;;;;;;;;5114544;28;20453;-75
2023/07/29 13:11:17;;;;;;;3.63;2.17;;;;;;;;;;5114920;28;20469;-77
2023/07/29 13:13:45;;;;;;;2.60;2.20;;;;;;;;;;5114785;28;20453;-77
2023/07/29 13:16:12;;;;;;;3.40;2.67;;;;;;;;;;5114463;28;20485;-76
2023/07/29 13:18:39;;;;;;;2.27;1.83;;;;;;;;;;5114305;28;20449;-77
2023/07/29 13:21:08;;;;;;;2.87;2.20;;;;;;;;;;5114357;28;20519;-76
2023/07/29 13:23:35;;;;;;;2.97;2.07;;;;;;;;;;5114535;28;20520;-75
2023/07/29 13:26:02;;;;;;;4.10;2.30;;;;;;;;;;5114732;28;20449;-77
2023/07/29 13:28:29;;;;;;;2.70;2.10;;;;;;;;;;5114696;28;20448;-78
2023/07/29 13:30:57;;;;;;;2.90;2.40;;;;;;;;;;5114598;28;20986;-77
2023/07/29 13:33:24;;;;;;;2.27;2.07;;;;;;;;;;5114700;28;20465;-77
2023/07/29 13:35:51;;;;;;;2.73;2.13;;;;;;;;;;5114807;28;20513;-77
2023/07/29 13:38:20;;;;;;;4.47;2.17;;;;;;;;;;5114413;28;20873;-76
2023/07/29 13:40:50;;;;;;;2.43;2.03;;;;;;;;;;5114493;28;20449;-77
2023/07/29 13:43:18;;;;;;;4.07;2.13;;;;;;;;;;5114612;28;20446;-77
2023/07/29 13:45:45;;;;;;;2.80;2.50;;;;;;;;;;5114265;28;20454;-76
2023/07/29 13:48:12;;;;;;;6.50;2.70;;;;;;;;;;5114311;28;20942;-77
2023/07/29 13:50:39;;;;;;;5.50;3.10;;;;;;;;;;5114407;28;20457;-77
2023/07/29 13:53:06;;;;;;;3.30;2.40;;;;;;;;;;5114371;28;20537;-77
2023/07/29 13:55:35;;;;;;;2.63;2.37;;;;;;;;;;5114136;28;20490;-77
2023/07/29 13:58:02;;;;;;;2.40;2.07;;;;;;;;;;5114028;28;20450;-77
2023/07/29 14:00:29;;;;;;;2.50;1.90;;;;;;;;;;5114147;28;20537;-77
2023/07/29 14:02:56;;;;;;;5.67;4.37;;;;;;;;;;5114267;28;20935;-77
2023/07/29 14:05:23;;;;;;;5.00;3.67;;;;;;;;;;5113913;28;20452;-77
2023/07/29 14:07:51;;;;;;;4.17;2.63;;;;;;;;;;5114292;28;20918;-77
2023/07/29 14:10:18;;;;;;;3.47;2.73;;;;;;;;;;5113738;28;20453;-76
2023/07/29 14:12:46;;;;;;;5.70;2.00;;;;;;;;;;5114040;28;20879;-76
2023/07/29 14:15:13;;;;;;;3.70;3.10;;;;;;;;;;5113146;28;20500;-76
2023/07/29 14:17:40;;;;;;;6.27;2.63;;;;;;;;;;5112839;28;20461;-76
2023/07/29 14:20:08;;;;;;;2.87;2.10;;;;;;;;;;5113171;28;20456;-76
2023/07/29 14:22:35;;;;;;;3.47;2.93;;;;;;;;;;5113491;28;20478;-77
2023/07/29 14:25:02;;;;;;;4.80;2.97;;;;;;;;;;5113611;28;20783;-76
2023/07/29 14:27:30;;;;;;;4.77;2.63;;;;;;;;;;5113131;28;20478;-77
2023/07/29 14:29:58;;;;;;;7.60;2.53;;;;;;;;;;5114046;28;20497;-78
2023/07/29 14:32:25;;;;;;;7.87;4.17;;;;;;;;;;5114365;28;20973;-78
2023/07/29 14:34:52;;;;;;;4.27;3.40;;;;;;;;;;5114424;28;20460;-78
2023/07/29 14:37:19;;;;;;;4.30;3.23;;;;;;;;;;5114140;28;20454;-78
2023/07/29 14:39:47;;;;;;;4.13;3.00;;;;;;;;;;5114300;28;20441;-77
2023/07/29 14:42:15;;;;;;;4.47;3.60;;;;;;;;;;5115984;28;20473;-78
2023/07/29 14:44:42;;;;;;;5.97;3.37;;;;;;;;;;5114009;28;20503;-77
2023/07/29 14:47:10;;;;;;;9.27;4.53;;;;;;;;;;5114070;28;20456;-77
2023/07/29 14:49:37;;;;;;;5.10;2.93;;;;;;;;;;5113098;28;20895;-76
2023/07/29 14:52:05;;;;;;;4.57;2.83;;;;;;;;;;5112907;28;20481;-76
2023/07/29 14:54:32;;;;;;;3.83;2.27;;;;;;;;;;5112614;28;20469;-76
2023/07/29 14:56:59;;;;;;;3.10;2.80;;;;;;;;;;5113078;28;20839;-76
2023/07/29 14:59:26;;;;;;;3.37;3.00;;;;;;;;;;5112658;28;20481;-76
2023/07/29 15:01:54;;;;;;;4.60;3.40;;;;;;;;;;5112998;28;20835;-76